Terminal Aerodrome Forecast
Issued by NWS Wilmington, OH

Current Version | Previous Version | Graphics & Text | Print | Product List | Glossary On
Versions: 1 2 3 4 5 6 7 8 9 10 11 12 13 14 15 16 17 18 19 20 21 22 23 24 25 26 27 28 29
000
FTUS41 KILN 222300
TAFILN
TAF
KILN 222330Z 2300/2324 11005KT P6SM OVC100
     FM230600 13010KT P6SM VCSH OVC030
      TEMPO 2307/2310 3SM -SHRA OVC015
     FM231000 17012KT P6SM VCSH OVC015
     FM231800 17007KT P6SM VCSH OVC012
     FM232200 14005KT P6SM VCSH OVC010=

USA.gov is the U.S. government's official web portal to all federal, state and local government web resources and services.